Time;durP1;ratioP1;P1;durP2;ratioP2;P2;SDS_P1;SDS_P2;PMS_P1;PMS_P2;Temp;Humidity;BMP_temperature;BMP_pressure;BME280_temperature;BME280_humidity;BME280_pressure;Samples;Min_cycle;Max_cycle;Signal;HPM_P1;HPM_P2
2024/02/19 00:00:00;;;;;;;7.95;5.00;;;;;;;11.22;52.27;99954.25;5053217;28;20104;-74
2024/02/19 00:02:26;;;;;;;10.80;5.28;;;;;;;11.21;52.32;99952.59;5052021;28;20052;-73
2024/02/19 00:04:51;;;;;;;9.35;5.53;;;;;;;11.22;52.09;99949.03;5051485;28;20404;-75
2024/02/19 00:07:17;;;;;;;8.48;5.75;;;;;;;11.23;52.13;99955.09;5050406;28;20044;-73
2024/02/19 00:09:44;;;;;;;10.18;5.90;;;;;;;11.20;52.32;99940.44;5050652;28;20163;-73
2024/02/19 00:12:10;;;;;;;8.35;5.65;;;;;;;11.25;52.19;99955.84;5035633;28;20419;-73
2024/02/19 00:14:36;;;;;;;11.15;6.70;;;;;;;11.25;52.18;99953.22;5052347;28;20429;-75
2024/02/19 00:17:01;;;;;;;12.50;6.30;;;;;;;11.25;52.23;99950.63;5034932;28;20087;-74
2024/02/19 00:19:27;;;;;;;11.77;7.18;;;;;;;11.22;52.22;99946.41;5018262;28;20111;-75
2024/02/19 00:21:52;;;;;;;12.43;7.18;;;;;;;11.26;52.34;99949.69;5035125;28;20083;-73
2024/02/19 00:24:18;;;;;;;12.52;7.20;;;;;;;11.27;52.23;99950.53;5051162;28;20041;-74
2024/02/19 00:26:43;;;;;;;13.90;7.30;;;;;;;11.28;52.32;99958.28;5052194;28;20036;-75
2024/02/19 00:29:09;;;;;;;13.88;7.75;;;;;;;11.28;52.23;99953.06;5051582;28;20028;-75
2024/02/19 00:31:34;;;;;;;12.50;7.10;;;;;;;11.22;52.35;99954.25;5035481;28;20048;-75
2024/02/19 00:34:00;;;;;;;12.02;6.88;;;;;;;11.29;52.25;99959.13;5034356;28;20025;-74
2024/02/19 00:36:25;;;;;;;13.48;7.57;;;;;;;11.29;52.05;99957.38;5034962;28;20032;-75
2024/02/19 00:38:51;;;;;;;10.95;7.22;;;;;;;11.28;52.21;99960.91;5051593;28;20029;-74
2024/02/19 00:41:19;;;;;;;12.55;7.63;;;;;;;11.29;52.13;99959.13;5034602;28;20095;-74
2024/02/19 00:43:45;;;;;;;11.20;7.25;;;;;;;11.28;52.17;99965.28;5051031;28;20131;-74
2024/02/19 00:46:10;;;;;;;11.60;7.57;;;;;;;11.28;52.24;99960.91;5051854;28;20503;-74
2024/02/19 00:48:36;;;;;;;11.10;7.45;;;;;;;11.28;52.11;99960.91;5051004;28;20045;-75
2024/02/19 00:51:04;;;;;;;11.70;7.32;;;;;;;11.29;52.12;99957.38;5052773;28;20063;-74
2024/02/19 00:53:30;;;;;;;14.32;8.18;;;;;;;11.24;52.19;99941.09;5051536;28;20029;-74
2024/02/19 00:55:55;;;;;;;15.13;8.02;;;;;;;11.29;52.16;99944.28;5034270;28;20083;-74
2024/02/19 00:58:21;;;;;;;13.88;7.88;;;;;;;11.25;52.10;99931.50;5051504;28;20412;-74
2024/02/19 01:00:46;;;;;;;11.88;7.55;;;;;;;11.30;52.25;99945.94;5034816;28;20086;-74
2024/02/19 01:03:13;;;;;;;11.63;7.32;;;;;;;11.29;52.08;99938.19;5052272;28;20047;-75
2024/02/19 01:05:38;;;;;;;16.17;7.85;;;;;;;11.29;52.36;99941.69;5052485;28;20028;-76
2024/02/19 01:08:04;;;;;;;10.45;7.10;;;;;;;11.28;51.99;99928.69;5051273;28;20480;-75
2024/02/19 01:10:30;;;;;;;12.52;7.75;;;;;;;11.29;52.14;99936.44;5018210;28;20032;-76
2024/02/19 01:12:55;;;;;;;12.40;7.40;;;;;;;11.30;52.03;99929.44;5034758;28;20124;-74
2024/02/19 01:15:21;;;;;;;12.13;7.35;;;;;;;11.29;52.17;99932.97;5050787;28;20067;-74
2024/02/19 01:17:46;;;;;;;11.77;7.53;;;;;;;11.23;52.20;99915.91;5032875;28;20381;-76
2024/02/19 01:20:12;;;;;;;11.75;7.68;;;;;;;11.25;52.18;99921.03;5032041;28;20025;-75
2024/02/19 01:22:38;;;;;;;12.85;7.28;;;;;;;11.29;52.26;99926.00;5049159;28;20524;-75
2024/02/19 01:25:04;;;;;;;12.48;7.18;;;;;;;11.24;52.03;99912.34;5050715;28;20028;-76
2024/02/19 01:27:30;;;;;;;10.63;7.22;;;;;;;11.29;52.20;99912.91;5033095;28;20025;-76
2024/02/19 01:29:56;;;;;;;13.23;7.53;;;;;;;11.29;52.13;99922.50;5050964;28;20041;-76
2024/02/19 01:32:22;;;;;;;13.32;8.05;;;;;;;11.29;52.09;99912.06;5050478;28;20108;-76
2024/02/19 01:34:47;;;;;;;15.13;7.68;;;;;;;11.25;52.35;99905.34;5032690;28;20476;-75
2024/02/19 01:37:13;;;;;;;10.93;7.20;;;;;;;11.25;52.38;99900.97;5032696;28;20036;-74
2024/02/19 01:39:38;;;;;;;12.43;7.95;;;;;;;11.28;52.39;99911.22;5033768;28;20514;-74
2024/02/19 01:42:05;;;;;;;12.48;8.10;;;;;;;11.29;51.86;99909.44;5050547;28;20630;-76
2024/02/19 01:44:30;;;;;;;12.68;7.32;;;;;;;11.22;52.35;99898.53;5050393;28;20053;-76
2024/02/19 01:46:56;;;;;;;10.80;7.00;;;;;;;11.22;52.06;99901.97;5033598;28;20090;-75
2024/02/19 01:49:21;;;;;;;11.65;7.53;;;;;;;11.26;52.10;99902.66;5017175;28;20036;-76
2024/02/19 01:51:47;;;;;;;11.82;8.00;;;;;;;11.26;52.10;99907.00;5032884;28;20033;-75
2024/02/19 01:54:12;;;;;;;13.77;7.63;;;;;;;11.22;52.26;99891.53;5033419;28;20037;-74
2024/02/19 01:56:38;;;;;;;13.85;7.90;;;;;;;11.28;52.24;99897.34;5033946;28;20033;-74
2024/02/19 01:59:04;;;;;;;12.45;7.53;;;;;;;11.22;52.45;99888.06;5050288;28;20484;-75
2024/02/19 02:01:30;;;;;;;13.45;7.70;;;;;;;11.27;52.18;99900.88;5051287;28;20021;-75
2024/02/19 02:03:55;;;;;;;12.05;7.60;;;;;;;11.25;52.24;99890.50;5033975;28;20033;-76
2024/02/19 02:06:22;;;;;;;13.18;7.53;;;;;;;11.22;52.21;99891.53;5015046;28;20040;-76
2024/02/19 02:08:48;;;;;;;11.40;7.47;;;;;;;11.20;52.13;99882.09;5033145;28;20033;-74
2024/02/19 02:11:14;;;;;;;13.50;8.85;;;;;;;11.18;52.33;99874.34;5032977;28;20629;-73
2024/02/19 02:13:39;;;;;;;11.75;7.90;;;;;;;11.24;52.37;99883.59;5050077;28;20032;-75
2024/02/19 02:16:06;;;;;;;11.00;8.00;;;;;;;11.25;52.17;99877.44;5050305;28;20037;-74
2024/02/19 02:18:32;;;;;;;14.27;8.40;;;;;;;11.19;52.21;99875.19;5050350;28;20079;-73
2024/02/19 02:20:58;;;;;;;11.80;7.60;;;;;;;11.19;52.47;99875.19;5032566;28;20459;-74
2024/02/19 02:23:24;;;;;;;12.93;8.00;;;;;;;11.24;52.16;99878.34;5048791;28;20029;-74
2024/02/19 02:25:49;;;;;;;12.48;7.90;;;;;;;11.19;52.20;99876.03;5050318;28;20039;-77
2024/02/19 02:28:15;;;;;;;10.57;7.38;;;;;;;11.24;52.14;99880.97;5049936;28;20033;-75
2024/02/19 02:30:40;;;;;;;13.63;8.13;;;;;;;11.19;52.23;99877.81;5049977;28;20401;-75
2024/02/19 02:33:06;;;;;;;13.80;8.23;;;;;;;11.20;52.40;99887.34;5050363;28;20040;-75
2024/02/19 02:35:31;;;;;;;11.43;7.93;;;;;;;11.23;52.18;99885.38;5033377;28;20082;-74
2024/02/19 02:37:59;;;;;;;12.38;7.82;;;;;;;11.22;52.31;99880.22;5054476;28;20033;-74
2024/02/19 02:40:25;;;;;;;11.48;7.63;;;;;;;11.09;52.46;99869.69;5037663;28;20044;-74
2024/02/19 02:42:50;;;;;;;12.93;8.13;;;;;;;11.17;52.24;99874.44;5054156;28;20147;-73
2024/02/19 02:45:16;;;;;;;10.20;7.43;;;;;;;11.18;52.40;99873.50;5053860;28;20507;-76
2024/02/19 02:47:41;;;;;;;14.20;8.25;;;;;;;11.22;52.44;99882.84;5020743;28;20041;-75
2024/02/19 02:50:07;;;;;;;11.70;8.00;;;;;;;11.22;52.38;99888.91;5054044;28;20491;-74
2024/02/19 02:52:33;;;;;;;12.02;8.10;;;;;;;11.18;52.30;99878.72;5052728;28;20032;-76
2024/02/19 02:54:58;;;;;;;11.55;7.70;;;;;;;11.17;52.56;99884.91;5035712;28;20067;-76
2024/02/19 02:57:24;;;;;;;11.05;7.85;;;;;;;11.18;52.38;99883.94;5052486;28;20068;-74
2024/02/19 02:59:49;;;;;;;13.77;8.45;;;;;;;11.21;52.24;99887.25;5035892;28;20021;-76
2024/02/19 03:02:15;;;;;;;11.52;8.00;;;;;;;11.22;52.52;99885.47;5054203;28;20377;-75
2024/02/19 03:04:40;;;;;;;12.32;8.05;;;;;;;11.22;52.44;99888.06;5036878;28;20037;-75
2024/02/19 03:07:05;;;;;;;13.65;8.07;;;;;;;11.16;52.52;99873.59;5054578;28;20032;-76
2024/02/19 03:09:31;;;;;;;10.65;7.60;;;;;;;11.16;52.42;99880.59;5036994;28;20032;-75
2024/02/19 03:11:56;;;;;;;13.82;8.48;;;;;;;11.20;52.70;99890.78;5053628;28;20106;-75
2024/02/19 03:14:22;;;;;;;11.00;8.05;;;;;;;11.16;52.54;99876.22;5051425;28;20072;-74
2024/02/19 03:16:48;;;;;;;10.68;7.65;;;;;;;11.17;52.48;99882.28;5034786;28;20033;-74
2024/02/19 03:19:14;;;;;;;12.10;7.82;;;;;;;11.15;52.58;99884.16;5034258;28;20032;-75
2024/02/19 03:21:42;;;;;;;11.20;7.53;;;;;;;11.20;52.54;99882.09;5053210;28;20074;-74
2024/02/19 03:24:08;;;;;;;10.70;7.30;;;;;;;11.16;52.69;99878.81;5053353;28;20063;-74
2024/02/19 03:26:34;;;;;;;12.02;8.57;;;;;;;11.20;52.42;99887.34;5052980;28;20064;-73
2024/02/19 03:29:00;;;;;;;12.68;8.32;;;;;;;11.16;52.45;99876.22;5053375;28;20048;-78
2024/02/19 03:31:26;;;;;;;12.57;8.07;;;;;;;11.18;52.52;99883.94;5036678;28;20024;-75
2024/02/19 03:33:52;;;;;;;13.18;8.30;;;;;;;11.16;52.38;99881.44;5054172;28;20028;-75
2024/02/19 03:36:18;;;;;;;11.23;7.55;;;;;;;11.14;52.69;99880.69;5052920;28;20036;-77
2024/02/19 03:38:43;;;;;;;12.70;7.95;;;;;;;11.18;52.48;99886.56;5019721;28;20052;-76
2024/02/19 03:41:11;;;;;;;12.68;8.32;;;;;;;11.14;52.51;99875.47;5036033;28;20428;-76
2024/02/19 03:43:37;;;;;;;12.43;7.93;;;;;;;11.17;52.54;99885.75;5020052;28;20565;-78
2024/02/19 03:46:04;;;;;;;13.68;7.88;;;;;;;11.17;52.60;99883.13;5052990;28;20038;-77
2024/02/19 03:48:30;;;;;;;11.43;7.75;;;;;;;11.12;52.69;99868.66;5051331;28;20416;-76
2024/02/19 03:50:57;;;;;;;13.05;7.90;;;;;;;11.15;52.34;99871.94;5035814;28;20052;-76
2024/02/19 03:53:22;;;;;;;13.80;8.75;;;;;;;11.16;52.83;99880.59;5035202;28;20404;-76
2024/02/19 03:55:48;;;;;;;10.68;7.60;;;;;;;11.15;52.67;99869.31;5036209;28;20044;-76
2024/02/19 03:58:13;;;;;;;12.80;7.78;;;;;;;11.11;52.51;99872.22;5035124;28;20027;-76
2024/02/19 04:00:39;;;;;;;12.45;7.75;;;;;;;11.14;52.50;99870.25;5052778;28;20060;-76
2024/02/19 04:03:05;;;;;;;12.02;8.02;;;;;;;11.11;52.51;99866.97;5034898;28;20048;-77
2024/02/19 04:05:30;;;;;;;12.18;8.02;;;;;;;11.16;52.82;99878.00;5019115;28;20045;-78
2024/02/19 04:07:56;;;;;;;12.07;8.23;;;;;;;11.15;52.52;99876.31;5053723;28;20024;-77
2024/02/19 04:10:21;;;;;;;13.43;8.10;;;;;;;11.16;52.67;99872.75;5019498;28;20033;-75
2024/02/19 04:12:46;;;;;;;12.27;7.45;;;;;;;11.16;52.62;99880.59;5052562;28;20056;-76
2024/02/19 04:15:13;;;;;;;14.02;7.80;;;;;;;11.16;52.60;99875.38;5052030;28;20504;-76
2024/02/19 04:17:39;;;;;;;12.00;7.40;;;;;;;11.16;52.78;99878.81;5052075;28;20061;-76
2024/02/19 04:20:05;;;;;;;12.10;7.90;;;;;;;11.15;52.78;99877.16;5052829;28;20056;-76
2024/02/19 04:22:31;;;;;;;11.52;7.35;;;;;;;11.15;52.74;99873.72;5050986;28;20033;-75
2024/02/19 04:24:56;;;;;;;10.27;7.57;;;;;;;11.15;52.78;99881.56;5035408;28;20046;-76
2024/02/19 04:27:21;;;;;;;13.02;7.68;;;;;;;11.17;52.91;99879.69;5052062;28;20037;-75
2024/02/19 04:29:47;;;;;;;12.88;7.43;;;;;;;11.17;52.93;99879.69;5034976;28;20079;-75
2024/02/19 04:32:12;;;;;;;12.13;7.63;;;;;;;11.02;52.56;99853.53;5052146;28;20496;-77
2024/02/19 04:34:38;;;;;;;12.38;7.30;;;;;;;11.15;52.82;99874.53;5052402;28;20047;-77
2024/02/19 04:37:06;;;;;;;13.02;7.93;;;;;;;11.11;52.73;99870.44;5035042;28;20091;-76
2024/02/19 04:39:32;;;;;;;12.40;7.72;;;;;;;11.11;52.80;99866.97;5034254;28;20024;-78
2024/02/19 04:41:58;;;;;;;11.38;7.35;;;;;;;11.15;52.88;99878.94;5034568;28;20055;-78
2024/02/19 04:44:24;;;;;;;13.93;8.60;;;;;;;11.13;52.96;99876.41;5035295;28;20049;-78
2024/02/19 04:46:49;;;;;;;11.18;7.03;;;;;;;11.14;52.62;99867.63;5051630;28;20052;-75
2024/02/19 04:49:15;;;;;;;10.52;6.85;;;;;;;11.14;52.69;99875.47;5053077;28;20518;-75
2024/02/19 04:51:40;;;;;;;14.20;7.57;;;;;;;11.14;52.87;99877.25;5049544;28;20055;-78
2024/02/19 04:54:06;;;;;;;10.75;6.70;;;;;;;11.13;52.80;99879.03;5035763;28;20037;-90
2024/02/19 04:56:31;;;;;;;10.50;7.20;;;;;;;11.09;52.66;99869.69;5051864;28;20381;-84
2024/02/19 04:58:57;;;;;;;11.68;5.55;;;;;;;11.56;66.58;99873.78;5053712;28;20083;-81
2024/02/19 05:01:22;;;;;;;12.13;5.80;;;;;;;11.79;66.01;99878.50;5018635;28;20044;-78
2024/02/19 05:03:48;;;;;;;15.55;5.70;;;;;;;11.80;64.85;99881.03;5053258;28;20029;-80
2024/02/19 05:06:14;;;;;;;14.07;5.78;;;;;;;11.83;64.25;99880.84;5034719;28;20175;-78
2024/02/19 05:08:40;;;;;;;12.95;5.82;;;;;;;11.80;65.88;99870.56;5051488;28;20041;-80
2024/02/19 05:11:06;;;;;;;15.88;5.55;;;;;;;11.85;65.06;99865.88;5034867;28;20395;-79
2024/02/19 05:13:37;;;;;;;12.68;5.85;;;;;;;11.84;63.68;99879.88;5017587;28;20116;-75
2024/02/19 05:16:03;;;;;;;12.13;5.78;;;;;;;11.84;64.90;99881.66;5034257;28;20035;-78
2024/02/19 05:18:29;;;;;;;15.52;5.72;;;;;;;11.81;63.56;99884.47;5050659;28;20029;-85
2024/02/19 05:20:55;;;;;;;14.50;5.57;;;;;;;11.77;63.25;99876.81;5051311;28;20041;-82
2024/02/19 05:23:20;;;;;;;13.20;6.45;;;;;;;11.72;63.03;99886.75;5052173;28;20029;-75
2024/02/19 05:25:46;;;;;;;11.88;5.75;;;;;;;11.63;62.61;99884.69;5017679;28;20040;-78
2024/02/19 05:28:11;;;;;;;11.27;6.10;;;;;;;11.65;61.96;99893.28;5034168;28;20527;-79
2024/02/19 05:30:37;;;;;;;13.30;6.50;;;;;;;11.55;61.88;99893.00;5032737;28;20119;-77
2024/02/19 05:33:02;;;;;;;11.98;6.88;;;;;;;11.55;61.96;99898.25;5032647;28;20039;-77
2024/02/19 05:35:28;;;;;;;13.77;5.75;;;;;;;11.48;61.37;99888.25;5049502;28;20520;-78
2024/02/19 05:37:53;;;;;;;11.27;5.82;;;;;;;11.49;61.15;99895.16;5032208;28;20488;-78
2024/02/19 05:40:19;;;;;;;12.85;5.93;;;;;;;11.43;61.06;99892.94;5050127;28;20029;-78
2024/02/19 05:42:45;;;;;;;8.40;5.80;;;;;;;11.43;60.87;99900.78;5017868;28;20047;-77
2024/02/19 05:45:10;;;;;;;10.32;6.40;;;;;;;11.39;60.63;99900.13;5034019;28;20048;-78
2024/02/19 05:47:36;;;;;;;11.35;6.63;;;;;;;11.33;60.55;99898.72;5034445;28;20429;-78
2024/02/19 05:50:02;;;;;;;14.85;7.57;;;;;;;11.36;60.28;99906.38;5017415;28;20025;-78
2024/02/19 05:52:27;;;;;;;12.65;7.65;;;;;;;11.34;60.54;99907.41;5017918;28;20057;-78
2024/02/19 05:54:53;;;;;;;14.48;7.53;;;;;;;11.28;60.26;99903.38;5034072;28;20048;-76
2024/02/19 05:57:19;;;;;;;22.17;9.50;;;;;;;11.29;60.10;99912.91;5033956;28;20480;-77
2024/02/19 05:59:44;;;;;;;19.65;10.38;;;;;;;11.25;59.87;99902.75;5033771;28;20473;-80
2024/02/19 06:02:10;;;;;;;21.30;10.45;;;;;;;11.28;59.96;99905.16;5033691;28;20086;-79
2024/02/19 06:04:35;;;;;;;21.48;11.20;;;;;;;11.21;59.82;99902.06;5051510;28;20404;-77
2024/02/19 06:07:01;;;;;;;23.17;11.52;;;;;;;11.22;59.74;99901.97;5033980;28;20037;-78
2024/02/19 06:09:27;;;;;;;22.58;11.48;;;;;;;11.23;59.45;99903.66;5049921;28;20116;-78
2024/02/19 06:11:53;;;;;;;25.00;12.25;;;;;;;11.20;59.48;99895.19;5033841;28;20503;-79
2024/02/19 06:14:19;;;;;;;22.10;12.60;;;;;;;11.19;59.63;99909.16;5050366;28;20039;-79
2024/02/19 06:16:44;;;;;;;27.17;13.25;;;;;;;11.19;59.61;99903.94;5017255;28;20053;-78
2024/02/19 06:19:10;;;;;;;22.98;12.82;;;;;;;11.21;59.52;99910.78;5033058;28;20025;-78
2024/02/19 06:21:38;;;;;;;23.63;12.82;;;;;;;11.21;59.72;99915.13;5033533;28;20481;-74
2024/02/19 06:24:04;;;;;;;16.15;8.10;;;;;;;11.60;67.31;99911.03;5040320;28;20110;-78
2024/02/19 06:26:30;;;;;;;13.52;8.20;;;;;;;11.66;66.08;99909.81;5017290;28;20033;-79
2024/02/19 06:28:55;;;;;;;16.08;8.70;;;;;;;11.65;65.22;99919.44;5051368;28;20036;-76
2024/02/19 06:31:21;;;;;;;16.98;9.00;;;;;;;11.60;64.45;99913.66;5050224;28;20032;-78
2024/02/19 06:33:46;;;;;;;17.58;8.85;;;;;;;11.59;64.10;99914.56;5017122;28;20127;-78
2024/02/19 06:36:11;;;;;;;16.45;8.55;;;;;;;11.55;63.46;99907.88;5033373;28;20033;-76
2024/02/19 06:38:37;;;;;;;19.05;9.77;;;;;;;11.60;63.23;99913.66;5017119;28;20454;-76
2024/02/19 06:41:03;;;;;;;14.77;9.15;;;;;;;11.55;62.70;99908.69;5033509;28;20037;-77
2024/02/19 06:43:28;;;;;;;15.50;9.35;;;;;;;11.59;62.57;99914.56;5033144;28;20412;-79
2024/02/19 06:45:54;;;;;;;16.65;9.77;;;;;;;11.57;62.24;99909.47;5033512;28;20114;-77
2024/02/19 06:48:19;;;;;;;16.77;9.77;;;;;;;11.52;62.46;99897.59;5049471;28;20036;-77
2024/02/19 06:50:45;;;;;;;16.90;10.40;;;;;;;11.52;62.07;99905.44;5032421;28;20033;-78
2024/02/19 06:53:11;;;;;;;17.58;9.98;;;;;;;11.54;61.76;99906.19;5050431;28;20210;-79
2024/02/19 06:55:36;;;;;;;16.00;9.70;;;;;;;11.55;61.99;99906.09;5049721;28;20131;-80
2024/02/19 06:58:02;;;;;;;19.13;11.77;;;;;;;11.51;61.75;99904.63;5015920;28;20445;-77
2024/02/19 07:00:27;;;;;;;21.55;12.40;;;;;;;11.54;61.62;99909.66;5049079;28;20389;-77
2024/02/19 07:02:53;;;;;;;21.27;13.07;;;;;;;11.54;61.56;99912.28;5048189;28;20094;-80
2024/02/19 07:05:19;;;;;;;24.85;13.77;;;;;;;11.54;61.27;99909.66;5049535;28;20033;-86
2024/02/19 07:07:47;;;;;;;22.23;13.52;;;;;;;11.54;61.21;99900.94;5033282;28;20029;-80
2024/02/19 07:10:12;;;;;;;21.60;13.63;;;;;;;11.52;61.16;99897.59;5033689;28;20102;-80
2024/02/19 07:12:38;;;;;;;20.95;12.50;;;;;;;11.67;64.54;99906.25;5014512;28;20504;-77
2024/02/19 07:15:05;;;;;;;26.90;13.00;;;;;;;11.68;62.67;99903.53;5049221;28;20073;-77
2024/02/19 07:17:30;;;;;;;25.35;12.85;;;;;;;11.70;62.80;99906.06;5032090;28;20095;-76
2024/02/19 07:19:56;;;;;;;23.30;12.52;;;;;;;11.68;62.47;99895.69;5032486;28;20077;-77
2024/02/19 07:22:21;;;;;;;19.60;11.68;;;;;;;11.65;62.08;99888.03;5048815;28;20025;-76
2024/02/19 07:24:47;;;;;;;21.05;12.70;;;;;;;11.69;61.90;99900.00;5035593;28;20052;-76
2024/02/19 07:27:12;;;;;;;22.45;12.15;;;;;;;11.67;61.83;99899.28;5052142;28;20128;-77
2024/02/19 07:29:38;;;;;;;21.52;11.35;;;;;;;11.70;61.35;99895.59;5019496;28;20175;-77
2024/02/19 07:32:03;;;;;;;17.63;11.07;;;;;;;11.70;61.16;99896.47;5053809;28;20090;-77
2024/02/19 07:34:29;;;;;;;17.73;11.40;;;;;;;11.70;61.15;99891.22;5052703;28;20412;-78
2024/02/19 07:36:54;;;;;;;23.50;11.43;;;;;;;11.70;60.96;99893.84;5036032;28;20048;-77
2024/02/19 07:39:20;;;;;;;19.70;11.32;;;;;;;11.71;61.10;99895.50;5036522;28;20035;-76
2024/02/19 07:41:46;;;;;;;19.63;10.63;;;;;;;11.70;60.51;99898.22;5052969;28;20037;-77
2024/02/19 07:44:11;;;;;;;16.80;10.30;;;;;;;11.68;60.65;99893.09;5052736;28;20057;-78
2024/02/19 07:46:37;;;;;;;15.27;10.05;;;;;;;11.66;60.32;99888.91;5036373;28;20025;-77
2024/02/19 07:49:03;;;;;;;14.95;10.48;;;;;;;11.70;60.49;99893.84;5036492;28;20032;-77
2024/02/19 07:51:28;;;;;;;16.98;9.95;;;;;;;11.68;60.23;99887.03;5054001;28;20041;-76
2024/02/19 07:53:55;;;;;;;20.75;10.70;;;;;;;11.67;59.68;99888.81;5036097;28;20043;-78
2024/02/19 07:56:20;;;;;;;18.70;10.63;;;;;;;11.67;59.93;99885.31;5052881;28;20033;-78
2024/02/19 07:58:46;;;;;;;17.58;10.13;;;;;;;11.65;59.90;99879.38;5036250;28;20098;-77
2024/02/19 08:01:11;;;;;;;14.73;9.63;;;;;;;11.70;59.63;99891.22;5036202;28;20033;-76
2024/02/19 08:03:36;;;;;;;15.40;9.32;;;;;;;11.69;59.76;99886.94;5052796;28;20547;-76
2024/02/19 08:06:02;;;;;;;14.20;9.80;;;;;;;11.70;59.65;99887.75;5052355;28;20040;-77
2024/02/19 08:08:28;;;;;;;15.07;9.52;;;;;;;11.69;59.50;99888.72;5018783;28;20409;-77
2024/02/19 08:10:53;;;;;;;15.70;10.00;;;;;;;11.70;59.10;99890.38;5053629;28;20564;-77
2024/02/19 08:13:19;;;;;;;15.25;9.38;;;;;;;11.69;59.24;99892.16;5052588;28;20055;-77
2024/02/19 08:15:44;;;;;;;15.32;9.30;;;;;;;11.71;59.15;99894.69;5053114;28;20045;-76
2024/02/19 08:18:10;;;;;;;16.63;9.45;;;;;;;11.70;59.12;99893.84;5053777;28;20484;-77
2024/02/19 08:20:40;;;;;;;18.20;9.40;;;;;;;11.67;59.05;99893.19;5051930;28;20454;-77
2024/02/19 08:23:06;;;;;;;14.70;8.65;;;;;;;11.69;58.99;99891.31;5019640;28;20044;-76
2024/02/19 08:25:32;;;;;;;16.60;8.68;;;;;;;11.70;58.82;99896.47;5019644;28;20393;-77
2024/02/19 08:27:57;;;;;;;15.68;9.15;;;;;;;11.70;58.56;99896.47;5018676;28;20056;-77
2024/02/19 08:30:23;;;;;;;12.57;8.18;;;;;;;11.70;58.50;99896.47;5036151;28;20024;-78
2024/02/19 08:32:48;;;;;;;13.15;7.97;;;;;;;11.67;58.40;99893.19;5035622;28;20076;-77
2024/02/19 08:35:14;;;;;;;13.13;8.27;;;;;;;11.70;58.41;99896.47;5018658;28;20033;-76
2024/02/19 08:37:39;;;;;;;15.75;8.50;;;;;;;11.66;58.28;99886.28;5051336;28;20412;-78
2024/02/19 08:40:05;;;;;;;14.25;8.38;;;;;;;11.65;58.43;99888.03;5018885;28;20550;-76
2024/02/19 08:42:31;;;;;;;14.98;8.57;;;;;;;11.64;58.24;99888.13;5051178;28;20032;-76
2024/02/19 08:44:57;;;;;;;15.63;8.60;;;;;;;11.68;58.31;99893.09;5052099;28;20083;-77
2024/02/19 08:47:22;;;;;;;13.55;7.93;;;;;;;11.71;57.92;99894.69;5053643;28;20485;-80
2024/02/19 08:49:48;;;;;;;13.23;7.90;;;;;;;11.65;57.87;99888.03;5018320;28;20036;-75
2024/02/19 08:52:14;;;;;;;12.10;7.10;;;;;;;11.69;57.82;99893.94;5018828;28;20060;-77
2024/02/19 08:54:40;;;;;;;11.65;7.30;;;;;;;11.67;57.82;99896.66;5035504;28;20056;-76
2024/02/19 08:57:05;;;;;;;12.85;7.80;;;;;;;11.68;57.68;99894.88;5035374;28;20503;-77
2024/02/19 08:59:31;;;;;;;13.73;7.82;;;;;;;11.66;57.51;99892.34;5052065;28;20044;-76
2024/02/19 09:01:57;;;;;;;15.57;7.80;;;;;;;11.64;57.71;99880.28;5035467;28;20045;-77
2024/02/19 09:04:23;;;;;;;11.48;7.45;;;;;;;11.68;57.54;99890.47;5035382;28;20033;-76
2024/02/19 09:06:49;;;;;;;13.23;7.85;;;;;;;11.69;57.49;99894.78;5051873;28;20025;-77
2024/02/19 09:09:15;;;;;;;13.85;8.02;;;;;;;11.69;57.24;99897.38;5018912;28;20037;-77
2024/02/19 09:11:40;;;;;;;13.55;7.63;;;;;;;11.65;57.52;99887.22;5034748;28;20496;-76
2024/02/19 09:14:06;;;;;;;11.48;7.30;;;;;;;11.64;57.19;99883.75;5035062;28;20492;-77
2024/02/19 09:16:31;;;;;;;11.70;7.90;;;;;;;11.68;57.22;99889.63;5033774;28;20045;-78
2024/02/19 09:18:57;;;;;;;12.35;6.88;;;;;;;11.67;57.18;99893.19;5051584;28;20043;-77
2024/02/19 09:21:23;;;;;;;14.32;7.55;;;;;;;11.66;57.47;99894.13;5033601;28;20470;-77
2024/02/19 09:23:48;;;;;;;12.38;7.40;;;;;;;11.59;57.05;99891.03;5051332;28;20033;-78
2024/02/19 09:26:14;;;;;;;13.35;7.47;;;;;;;11.61;56.64;99885.72;5051741;28;20044;-77
2024/02/19 09:28:40;;;;;;;14.90;7.30;;;;;;;11.66;56.45;99899.38;5034690;28;20033;-79
2024/02/19 09:31:06;;;;;;;13.48;7.25;;;;;;;11.65;56.73;99895.88;5034854;28;20408;-78
2024/02/19 09:33:32;;;;;;;13.15;7.00;;;;;;;11.66;56.63;99900.19;5018516;28;20028;-77
2024/02/19 09:35:58;;;;;;;13.52;6.95;;;;;;;11.68;56.71;99894.88;5018236;28;20024;-78
2024/02/19 09:38:23;;;;;;;11.73;6.82;;;;;;;11.69;56.29;99897.38;5034510;28;20044;-78
2024/02/19 09:40:49;;;;;;;12.35;7.10;;;;;;;11.71;56.28;99903.34;5034539;28;20029;-77
2024/02/19 09:43:20;;;;;;;11.07;6.75;;;;;;;11.68;56.18;99889.63;5017781;28;20500;-76
2024/02/19 09:45:45;;;;;;;12.23;7.13;;;;;;;11.73;56.11;99896.28;5033748;28;20055;-78
2024/02/19 09:48:11;;;;;;;12.85;6.95;;;;;;;11.75;56.19;99889.16;5034511;28;20048;-77
2024/02/19 09:50:43;;;;;;;10.20;6.70;;;;;;;11.77;56.26;99892.50;5018175;28;20029;-77
2024/02/19 09:53:10;;;;;;;11.23;5.93;;;;;;;11.76;55.97;99874.28;5034997;28;20025;-77
2024/02/19 09:55:36;;;;;;;12.30;6.90;;;;;;;11.83;55.73;99879.97;5050649;28;20036;-77
2024/02/19 09:58:01;;;;;;;12.80;7.05;;;;;;;11.82;55.82;99879.13;5050351;28;20035;-77
2024/02/19 10:00:27;;;;;;;12.05;6.53;;;;;;;11.84;56.08;99877.25;5033441;28;20480;-76
2024/02/19 10:02:53;;;;;;;12.80;6.53;;;;;;;11.84;55.76;99868.59;5050805;28;20048;-77
2024/02/19 10:05:19;;;;;;;12.10;6.47;;;;;;;11.88;55.65;99864.84;5034030;28;20082;-77
2024/02/19 10:07:45;;;;;;;9.75;6.22;;;;;;;11.94;55.68;99864.50;5033977;28;20460;-75
2024/02/19 10:10:11;;;;;;;11.80;7.07;;;;;;;11.96;55.46;99865.22;5033755;28;20056;-77
2024/02/19 10:12:39;;;;;;;12.70;6.53;;;;;;;11.99;55.35;99859.78;5034088;28;20036;-75
2024/02/19 10:15:05;;;;;;;11.20;6.60;;;;;;;12.00;55.11;99853.63;5017822;28;20029;-78
2024/02/19 10:17:31;;;;;;;11.60;6.60;;;;;;;12.02;55.07;99854.38;5033928;28;20033;-77
2024/02/19 10:20:01;;;;;;;11.82;7.05;;;;;;;12.06;54.70;99852.38;5033569;28;20071;-77
2024/02/19 10:22:27;;;;;;;10.95;6.10;;;;;;;12.10;55.14;99846.84;5033410;28;20063;-78
2024/02/19 10:24:52;;;;;;;11.20;6.45;;;;;;;12.13;54.81;99848.44;5049315;28;20033;-75
2024/02/19 10:27:18;;;;;;;11.23;6.60;;;;;;;12.16;54.90;99839.53;5051721;28;20484;-77
2024/02/19 10:29:46;;;;;;;11.52;6.43;;;;;;;12.13;54.74;99835.34;5049831;28;20083;-79
2024/02/19 10:32:11;;;;;;;10.30;6.15;;;;;;;12.21;54.54;99837.47;5033839;28;20025;-76
2024/02/19 10:34:37;;;;;;;10.02;6.32;;;;;;;12.22;54.72;99832.09;5050796;28;20056;-76
2024/02/19 10:37:05;;;;;;;10.77;6.40;;;;;;;12.25;54.58;99831.06;5050882;28;20056;-75
2024/02/19 10:39:31;;;;;;;11.07;6.63;;;;;;;12.21;54.44;99822.59;5049970;28;20116;-77
2024/02/19 10:41:57;;;;;;;13.20;6.13;;;;;;;12.24;54.42;99826.78;5033784;28;20032;-76
2024/02/19 10:44:24;;;;;;;12.35;6.88;;;;;;;12.24;54.02;99819.78;5033471;28;20419;-76
2024/02/19 10:46:52;;;;;;;11.68;6.63;;;;;;;12.26;54.43;99823.13;5050460;28;20385;-76
2024/02/19 10:49:19;;;;;;;10.50;6.22;;;;;;;12.27;54.08;99821.34;5032684;28;20356;-77
2024/02/19 10:51:45;;;;;;;8.23;5.45;;;;;;;12.24;54.22;99814.53;5033840;28;20037;-76
2024/02/19 10:54:11;;;;;;;11.48;6.35;;;;;;;12.25;54.11;99812.75;5033735;28;20108;-75
2024/02/19 10:56:43;;;;;;;9.43;6.07;;;;;;;12.28;54.24;99813.38;5016997;28;20400;-76
2024/02/19 10:59:09;;;;;;;10.30;6.18;;;;;;;12.29;54.34;99809.00;5037328;28;20513;-77
2024/02/19 11:01:46;;;;;;;9.52;6.00;;;;;;;12.26;54.12;99803.97;5037009;28;20041;-75
2024/02/19 11:04:23;;;;;;;9.35;5.90;;;;;;;12.30;54.24;99805.44;5038111;28;20056;-77
2024/02/19 11:06:54;;;;;;;9.80;6.15;;;;;;;12.30;54.06;99806.28;5052437;28;20021;-77
2024/02/19 11:09:20;;;;;;;11.50;6.45;;;;;;;12.31;53.84;99791.41;5037209;28;20029;-76
2024/02/19 11:11:47;;;;;;;9.98;5.95;;;;;;;12.36;54.25;99794.53;5036646;28;20025;-77
2024/02/19 11:14:15;;;;;;;11.35;6.32;;;;;;;12.41;53.50;99792.47;5053161;28;20075;-76
2024/02/19 11:16:41;;;;;;;10.80;6.13;;;;;;;12.45;53.76;99793.09;5053443;28;20373;-76